Cody, WY (82414)

10:22 AM MST on January 24, 2017 (GMT -0700)
Valley View | | Change Station
Active Advisory: Special Statement

Elev 5166 ft 44.51 °N, 109.10 °W | Updated 6 minutes ago

Light Snow
Light Snow Mist
19.2 °F
Feels Like 19 °F
N
0.0
Wind Variable Wind from NW
Gusts 4.0 mph

Today
High -- | Low -- °F
--% Chance of Precip.
Yesterday
High -- | Low -- °F
Precip. -- in
Pressure 29.95 in
Visibility 1.8 miles
Clouds Overcast 1300 ft
Windchill 19 °F
Dew Point 16 °F
Humidity 86%
Rainfall 0.00 in
Snow Depth Not available.
7:42 AM 5:14 PM
Waning Crescent, 11% visible
METAR KCOD 241656Z AUTO 01011KT 1 3/4SM -SN BR OVC013 M08/M09 A2977 RMK AO2 SLP142 P0000 T10781094 FZRANO
Pressure 29.95 in
Visibility 1.8 miles
Clouds Overcast 1300 ft
Windchill 19 °F
Dew Point 16 °F
Humidity 86%
Rainfall 0.00 in
Snow Depth Not available.
7:42 AM 5:14 PM
Waning Crescent, 11% visible
METAR KCOD 241656Z AUTO 01011KT 1 3/4SM -SN BR OVC013 M08/M09 A2977 RMK AO2 SLP142 P0000 T10781094 FZRANO

Get Your Daily Forecast Email!

Thanks for signing up!

Be on the lookout for a verification email in your inbox.

You'll start receiving the daily forecast at 8 AM.

×

10-Day Weather Forecast

Almanac

Astronomy

Jan. 24, 2017 Rise Set
Actual Time
Civil Twilight
Nautical Twilight
Astronomical Twilight
Moon
Length of Visible Light
Length of Day
Tomorrow will be .
, % of the Moon is Illuminated

Today's Extremes

State Highs State Lows

Community

WunderPhotos

Upload Photos

1,962,540 photos uploaded!

WunderBlog® & News

Nearby

Air Quality

  Air Quality AQ Index Pollutant
Not available.

Snow Depth

Station Depth Elevation

Earthquake Activity

City Distance Mag. Time & Date
Minimum magnitude displayed is 2.5.

Coastal Water Temperatures

Place Temperature

Stations

Nearby Weather Stations

Station Location Temp. Windchill Dew Point Humidity Wind Precip. Elev Updated Type
                   

Watches & Warnings

Special Statement
Issued: 4:45 AM MST Jan. 24, 2017 – National Weather Service

Snowfall is expected to taper off from north to south this morning.
3 inches have fallen so far in Worland. Total snowfall
accumulation will generally range from 2 to 4 inches with the
highest amounts found over the southern Cody foothills.



445 am MST Tue Jan 24 2017

Snowfall is expected to taper off from north to south this morning.
3 inches have fallen so far in Worland. Total snowfall
accumulation will generally range from 2 to 4 inches with the
highest amounts found over the southern Cody foothills.